createdAt,value
2019-03-27T00:01:06.793Z,5.30
2019-03-27T00:03:36.755Z,5.20
2019-03-27T00:06:06.951Z,5.20
2019-03-27T00:08:37.215Z,5.20
2019-03-27T00:11:07.325Z,5.30
2019-03-27T00:13:37.909Z,5.30
2019-03-27T00:16:09.367Z,5.30
2019-03-27T00:18:39.620Z,5.20
2019-03-27T00:21:10.352Z,5.20
2019-03-27T00:23:44.313Z,5.20
2019-03-27T00:26:16.576Z,5.30
2019-03-27T00:28:47.883Z,5.30
2019-03-27T00:31:19.825Z,5.40
2019-03-27T00:33:50.168Z,5.30
2019-03-27T00:36:21.536Z,5.30
2019-03-27T00:38:52.324Z,5.30
2019-03-27T00:41:23.245Z,5.30
2019-03-27T00:43:54.804Z,5.30
2019-03-27T00:46:25.206Z,5.10
2019-03-27T00:48:55.117Z,5.00
2019-03-27T00:51:25.077Z,4.90
2019-03-27T00:53:55.582Z,4.90
2019-03-27T00:56:25.476Z,4.80
2019-03-27T00:58:55.436Z,4.80
2019-03-27T01:01:25.395Z,4.80
2019-03-27T01:03:56.772Z,4.80
2019-03-27T01:06:27.300Z,4.70
2019-03-27T01:08:57.259Z,4.60
2019-03-27T01:11:27.491Z,4.50
2019-03-27T01:13:57.553Z,4.60
2019-03-27T01:16:27.472Z,4.60
2019-03-27T01:19:00.709Z,4.50
2019-03-27T01:21:30.797Z,4.50
2019-03-27T01:24:00.744Z,4.50
2019-03-27T01:26:31.683Z,4.50
2019-03-27T01:29:02.230Z,4.40
2019-03-27T01:31:32.680Z,4.40
2019-03-27T01:34:03.676Z,4.40
2019-03-27T01:36:34.610Z,4.50
2019-03-27T01:39:06.392Z,4.50
2019-03-27T01:41:36.262Z,4.50
2019-03-27T01:44:07.260Z,4.50
2019-03-27T01:46:37.136Z,4.40
2019-03-27T01:49:07.099Z,4.40
2019-03-27T01:51:41.204Z,4.50
2019-03-27T01:54:11.752Z,4.50
2019-03-27T01:56:43.520Z,4.50
2019-03-27T01:59:13.813Z,4.40
2019-03-27T02:01:44.415Z,4.40
2019-03-27T02:04:14.291Z,4.50
2019-03-27T02:06:49.126Z,4.60
2019-03-27T02:09:19.552Z,4.60
2019-03-27T02:11:49.477Z,4.60
2019-03-27T02:14:19.774Z,4.60
2019-03-27T02:16:49.685Z,4.60
2019-03-27T02:19:21.407Z,4.70
2019-03-27T02:21:52.352Z,4.70
2019-03-27T02:24:22.268Z,4.70
2019-03-27T02:26:52.217Z,4.50
2019-03-27T02:29:22.173Z,4.50
2019-03-27T02:31:52.088Z,4.50
2019-03-27T02:34:22.355Z,4.50
2019-03-27T02:36:54.619Z,4.50
2019-03-27T02:39:24.632Z,4.40
2019-03-27T02:41:54.624Z,4.30
2019-03-27T02:44:24.589Z,4.30
2019-03-27T02:46:54.513Z,4.30
2019-03-27T02:49:24.444Z,4.30
2019-03-27T02:51:54.726Z,4.30
2019-03-27T02:54:25.124Z,4.30
2019-03-27T02:56:56.145Z,4.40
2019-03-27T02:59:27.798Z,4.40
2019-03-27T03:01:57.662Z,4.30
2019-03-27T03:04:27.957Z,4.30
2019-03-27T03:06:57.925Z,4.30
2019-03-27T03:09:27.856Z,4.20
2019-03-27T03:11:59.961Z,4.20
2019-03-27T03:14:31.766Z,4.10
2019-03-27T03:17:02.803Z,4.00
2019-03-27T03:19:32.671Z,3.90
2019-03-27T03:22:06.307Z,4.00
2019-03-27T03:24:36.811Z,3.90
2019-03-27T03:27:06.742Z,3.90
2019-03-27T03:29:37.299Z,3.90
2019-03-27T03:32:07.650Z,3.80
2019-03-27T03:34:37.925Z,3.70
2019-03-27T03:37:09.949Z,3.70
2019-03-27T03:39:39.808Z,3.70
2019-03-27T03:42:11.099Z,3.70
2019-03-27T03:44:41.822Z,3.60
2019-03-27T03:47:11.708Z,3.50
2019-03-27T03:49:45.605Z,3.40
2019-03-27T03:52:16.506Z,3.50
2019-03-27T03:54:47.067Z,3.60
2019-03-27T03:57:20.297Z,3.50
2019-03-27T03:59:56.088Z,3.60
2019-03-27T04:02:29.172Z,3.50
2019-03-27T04:05:00.149Z,3.50
2019-03-27T04:07:30.634Z,3.50
2019-03-27T04:10:00.811Z,3.60
2019-03-27T04:12:31.607Z,3.60
2019-03-27T04:15:02.884Z,3.70
2019-03-27T04:17:34.116Z,3.70
2019-03-27T04:20:05.606Z,3.80
2019-03-27T04:22:39.580Z,3.70
2019-03-27T04:25:10.413Z,3.70
2019-03-27T04:27:40.870Z,3.60
2019-03-27T04:30:13.978Z,3.60
2019-03-27T04:32:45.542Z,3.60
2019-03-27T04:35:17.976Z,3.70
2019-03-27T04:37:51.588Z,3.70
2019-03-27T04:40:27.548Z,3.80
2019-03-27T04:42:57.479Z,3.90
2019-03-27T04:45:28.369Z,3.90
2019-03-27T04:47:58.567Z,3.70
2019-03-27T04:50:31.504Z,3.70
2019-03-27T04:53:01.824Z,3.80
2019-03-27T04:55:32.049Z,3.80
2019-03-27T04:58:02.064Z,3.90
2019-03-27T05:00:34.308Z,3.90
2019-03-27T05:03:04.617Z,3.90
2019-03-27T05:05:35.103Z,3.90
2019-03-27T05:08:05.695Z,3.90
2019-03-27T05:10:39.074Z,4.00
2019-03-27T05:13:09.724Z,4.00
2019-03-27T05:15:41.437Z,4.00
2019-03-27T05:18:11.414Z,4.00
2019-03-27T05:20:41.428Z,4.00
2019-03-27T05:23:11.435Z,3.90
2019-03-27T05:25:42.165Z,3.90
2019-03-27T05:28:12.662Z,3.80
2019-03-27T05:30:43.241Z,3.90
2019-03-27T05:33:13.483Z,3.90
2019-03-27T05:35:43.552Z,3.90
2019-03-27T05:38:13.941Z,3.90
2019-03-27T05:40:43.980Z,3.90
2019-03-27T05:43:18.387Z,3.80
2019-03-27T05:45:58.236Z,3.70
2019-03-27T05:48:28.499Z,3.60
2019-03-27T05:51:00.177Z,3.60
2019-03-27T05:53:31.569Z,3.70
2019-03-27T05:56:02.804Z,3.70
2019-03-27T05:58:33.619Z,3.90
2019-03-27T06:01:06.491Z,3.80
2019-03-27T06:03:37.035Z,3.70
2019-03-27T06:06:07.449Z,3.70
2019-03-27T06:08:39.336Z,3.60
2019-03-27T06:11:12.414Z,3.50
2019-03-27T06:13:45.251Z,3.40
2019-03-27T06:16:17.622Z,3.40
2019-03-27T06:18:48.238Z,3.50
2019-03-27T06:21:19.515Z,3.60
2019-03-27T06:23:50.324Z,3.70
2019-03-27T06:26:20.941Z,3.80
2019-03-27T06:28:52.657Z,3.90
2019-03-27T06:31:23.650Z,3.80
2019-03-27T06:33:53.693Z,3.90
2019-03-27T06:36:28.489Z,3.90
2019-03-27T06:38:59.597Z,3.90
2019-03-27T06:41:30.142Z,3.90
2019-03-27T06:44:00.396Z,3.90
2019-03-27T06:46:30.779Z,3.80
2019-03-27T06:49:02.232Z,3.80
2019-03-27T06:51:39.890Z,3.80
2019-03-27T06:54:04.153Z,3.60
2019-03-27T06:56:34.072Z,3.60
2019-03-27T06:59:06.699Z,3.60
2019-03-27T07:01:37.210Z,3.60
2019-03-27T07:04:10.756Z,3.60
2019-03-27T07:06:38.709Z,3.70
2019-03-27T07:09:10.372Z,3.80
2019-03-27T07:11:40.712Z,3.90
2019-03-27T07:14:10.638Z,3.90
2019-03-27T07:16:41.536Z,4.00
2019-03-27T07:19:11.989Z,4.00
2019-03-27T07:21:42.208Z,3.90
2019-03-27T07:24:12.171Z,4.00
2019-03-27T07:26:42.117Z,4.00
2019-03-27T07:29:12.124Z,4.00
2019-03-27T07:31:42.512Z,4.10
2019-03-27T07:34:13.034Z,4.10
2019-03-27T07:36:42.877Z,4.00
2019-03-27T07:39:13.673Z,4.10
2019-03-27T07:41:44.516Z,4.20
2019-03-27T07:44:16.461Z,4.40
2019-03-27T07:46:46.978Z,4.30
2019-03-27T07:49:19.475Z,4.50
2019-03-27T07:51:49.367Z,4.60
2019-03-27T07:54:20.827Z,4.80
2019-03-27T07:56:51.778Z,4.80
2019-03-27T07:59:21.836Z,4.80
2019-03-27T08:01:52.744Z,4.90
2019-03-27T08:04:24.582Z,4.90
2019-03-27T08:06:55.730Z,5.10
2019-03-27T08:09:25.940Z,5.10
2019-03-27T08:11:56.263Z,5.10
2019-03-27T08:14:26.161Z,5.20
2019-03-27T08:16:56.968Z,5.30
2019-03-27T08:19:26.893Z,5.50
2019-03-27T08:21:57.557Z,5.50
2019-03-27T08:24:28.172Z,5.70
2019-03-27T08:27:00.255Z,5.70
2019-03-27T08:29:31.016Z,5.60
2019-03-27T08:32:01.671Z,5.60
2019-03-27T08:34:31.588Z,5.70
2019-03-27T08:37:01.512Z,5.70
2019-03-27T08:39:31.680Z,5.90
2019-03-27T08:42:01.603Z,6.00
2019-03-27T08:44:31.528Z,6.00
2019-03-27T08:47:02.828Z,6.00
2019-03-27T08:49:33.434Z,6.10
2019-03-27T08:52:03.796Z,6.10
2019-03-27T08:54:34.475Z,6.20
2019-03-27T08:57:07.108Z,6.30
2019-03-27T08:59:41.933Z,6.40
2019-03-27T09:02:13.849Z,6.40
2019-03-27T09:04:45.318Z,6.60
2019-03-27T09:07:16.718Z,6.60
2019-03-27T09:09:48.531Z,6.90
2019-03-27T09:12:18.884Z,7.20
2019-03-27T09:14:49.149Z,7.50
2019-03-27T09:17:24.971Z,7.70
2019-03-27T09:19:55.939Z,7.70
2019-03-27T09:22:25.784Z,8.00
2019-03-27T09:24:56.097Z,8.10
2019-03-27T09:27:26.020Z,8.30
2019-03-27T09:29:56.561Z,8.70
2019-03-27T09:32:27.004Z,8.90
2019-03-27T09:34:58.155Z,9.20
2019-03-27T09:37:30.048Z,9.20
2019-03-27T09:40:01.307Z,9.60
2019-03-27T09:42:31.252Z,9.50
2019-03-27T09:45:01.172Z,9.70
2019-03-27T09:47:34.879Z,10.20
2019-03-27T09:50:05.787Z,10.10
2019-03-27T09:52:35.721Z,10.30
2019-03-27T09:55:08.256Z,10.20
2019-03-27T09:57:42.556Z,10.10
2019-03-27T10:00:13.774Z,10.00
2019-03-27T10:02:48.300Z,9.60
2019-03-27T10:05:19.499Z,9.40
2019-03-27T10:07:52.243Z,9.40
2019-03-27T10:10:22.147Z,9.50
2019-03-27T10:12:52.094Z,9.30
2019-03-27T10:15:22.542Z,9.00
2019-03-27T10:17:54.177Z,8.80
2019-03-27T10:20:24.673Z,8.60
2019-03-27T10:22:59.553Z,8.50
2019-03-27T10:25:33.395Z,8.30
2019-03-27T10:28:04.301Z,8.30
2019-03-27T10:30:34.707Z,8.30
2019-03-27T10:33:05.864Z,8.40
2019-03-27T10:35:37.202Z,8.40
2019-03-27T10:38:08.468Z,8.50
2019-03-27T10:40:50.658Z,8.60
2019-03-27T10:43:23.053Z,8.50
2019-03-27T10:45:53.037Z,8.40
2019-03-27T10:48:24.612Z,8.30
2019-03-27T10:50:54.513Z,8.50
2019-03-27T10:53:25.270Z,8.50
2019-03-27T10:55:56.272Z,8.70
2019-03-27T10:58:27.291Z,8.60
2019-03-27T11:00:58.177Z,8.20
2019-03-27T11:03:32.241Z,8.30
2019-03-27T11:06:02.235Z,8.40
2019-03-27T11:08:32.885Z,8.50
2019-03-27T11:11:02.871Z,8.60
2019-03-27T11:13:35.129Z,8.70
2019-03-27T11:16:05.479Z,8.90
2019-03-27T11:18:36.525Z,9.20
2019-03-27T11:21:06.460Z,9.50
2019-03-27T11:23:42.648Z,9.70
2019-03-27T11:26:18.861Z,9.80
2019-03-27T11:28:50.184Z,9.80
2019-03-27T11:31:20.060Z,9.70
2019-03-27T11:33:51.248Z,9.80
2019-03-27T11:36:21.633Z,10.00
2019-03-27T11:38:51.561Z,10.10
2019-03-27T11:41:22.840Z,10.10
2019-03-27T11:43:55.089Z,10.10
2019-03-27T11:46:25.962Z,10.10
2019-03-27T11:48:56.564Z,10.20
2019-03-27T11:51:26.798Z,10.30
2019-03-27T11:53:56.715Z,10.50
2019-03-27T11:56:27.405Z,10.50
2019-03-27T11:58:57.892Z,9.90
2019-03-27T12:01:39.223Z,10.10
2019-03-27T12:04:02.140Z,10.30
2019-03-27T12:06:32.391Z,10.20
2019-03-27T12:09:02.629Z,9.90
2019-03-27T12:11:32.587Z,9.40
2019-03-27T12:14:02.517Z,9.50
2019-03-27T12:16:32.572Z,9.70
2019-03-27T12:19:03.274Z,9.50
2019-03-27T12:21:33.338Z,9.50
2019-03-27T12:24:03.355Z,9.60
2019-03-27T12:26:33.962Z,9.70
2019-03-27T12:29:04.235Z,9.70
2019-03-27T12:31:39.800Z,9.80
2019-03-27T12:34:09.920Z,9.90
2019-03-27T12:36:40.194Z,9.70
2019-03-27T12:39:11.298Z,9.60
2019-03-27T12:41:44.252Z,9.80
2019-03-27T12:44:15.321Z,10.30
2019-03-27T12:46:51.736Z,10.60
2019-03-27T12:49:20.680Z,10.70
2019-03-27T12:51:50.833Z,10.60
2019-03-27T12:54:21.376Z,10.90
2019-03-27T12:56:51.606Z,10.50
2019-03-27T12:59:24.117Z,10.50
2019-03-27T13:01:54.892Z,10.40
2019-03-27T13:04:25.914Z,10.40
2019-03-27T13:06:56.446Z,10.60
2019-03-27T13:09:31.244Z,11.00
2019-03-27T13:12:10.549Z,11.60
2019-03-27T13:14:42.212Z,11.90
2019-03-27T13:17:12.904Z,12.10
2019-03-27T13:19:48.467Z,12.10
2019-03-27T13:22:19.565Z,12.00
2019-03-27T13:24:52.095Z,11.90
2019-03-27T13:27:29.930Z,11.80
2019-03-27T13:30:03.525Z,11.60
2019-03-27T13:32:34.627Z,11.40
2019-03-27T13:35:08.051Z,11.30
2019-03-27T13:37:41.487Z,11.20
2019-03-27T13:40:12.820Z,11.20
2019-03-27T13:42:47.954Z,10.90
2019-03-27T13:45:21.325Z,11.00
2019-03-27T13:47:54.871Z,11.00
2019-03-27T13:50:26.761Z,11.00
2019-03-27T13:52:58.228Z,10.80
2019-03-27T13:55:35.432Z,10.80
2019-03-27T13:58:10.409Z,10.80
2019-03-27T14:00:43.695Z,10.70
2019-03-27T14:03:14.616Z,10.60
2019-03-27T14:05:45.824Z,10.50
2019-03-27T14:08:17.277Z,10.30
2019-03-27T14:10:50.589Z,10.20
2019-03-27T14:13:22.920Z,10.10
2019-03-27T14:15:53.315Z,10.00
2019-03-27T14:18:25.795Z,10.00
2019-03-27T14:20:56.632Z,10.00
2019-03-27T14:23:27.218Z,9.90
2019-03-27T14:25:57.228Z,9.70
2019-03-27T14:28:27.237Z,9.70
2019-03-27T14:30:58.636Z,9.60
2019-03-27T14:33:29.153Z,9.60
2019-03-27T14:35:59.325Z,9.60
2019-03-27T14:38:30.965Z,9.70
2019-03-27T14:41:01.239Z,9.70
2019-03-27T14:43:33.894Z,9.70
2019-03-27T14:46:04.044Z,9.60
2019-03-27T14:48:35.417Z,9.60
2019-03-27T14:51:06.325Z,9.50
2019-03-27T14:53:36.573Z,9.50
2019-03-27T14:56:06.509Z,9.50
2019-03-27T14:58:36.934Z,9.60
2019-03-27T15:01:07.130Z,9.60
2019-03-27T15:03:37.053Z,9.60
2019-03-27T15:06:07.707Z,9.60
2019-03-27T15:08:38.295Z,9.60
2019-03-27T15:11:08.532Z,9.60
2019-03-27T15:13:38.474Z,9.40
2019-03-27T15:16:09.221Z,9.50
2019-03-27T15:18:39.623Z,9.60
2019-03-27T15:21:12.318Z,9.60
2019-03-27T15:23:43.964Z,9.50
2019-03-27T15:26:16.485Z,9.50
2019-03-27T15:28:50.794Z,9.60
2019-03-27T15:31:23.453Z,9.60
2019-03-27T15:33:57.886Z,9.60
2019-03-27T15:36:33.091Z,9.60
2019-03-27T15:39:07.254Z,9.60
2019-03-27T15:41:41.076Z,9.60
2019-03-27T15:44:13.939Z,9.70
2019-03-27T15:46:44.327Z,9.60
2019-03-27T15:49:14.872Z,9.50
2019-03-27T15:51:49.188Z,9.50
2019-03-27T15:54:24.124Z,9.40
2019-03-27T15:56:54.279Z,9.40
2019-03-27T15:59:26.247Z,9.10
2019-03-27T16:01:58.014Z,9.10
2019-03-27T16:04:28.072Z,9.10
2019-03-27T16:07:03.559Z,9.10
2019-03-27T16:09:33.804Z,9.10
2019-03-27T16:12:04.021Z,9.10
2019-03-27T16:14:33.980Z,9.10
2019-03-27T16:17:13.082Z,9.10
2019-03-27T16:19:36.251Z,9.10
2019-03-27T16:22:07.333Z,9.10
2019-03-27T16:24:37.385Z,9.10
2019-03-27T16:27:07.500Z,9.00
2019-03-27T16:29:37.717Z,9.00
2019-03-27T16:32:08.198Z,9.00
2019-03-27T16:34:38.459Z,9.00
2019-03-27T16:37:09.981Z,9.00
2019-03-27T16:39:40.218Z,8.80
2019-03-27T16:42:11.389Z,8.80
2019-03-27T16:44:41.829Z,8.80
2019-03-27T16:47:13.216Z,8.70
2019-03-27T16:49:43.136Z,8.70
2019-03-27T16:52:13.732Z,8.70
2019-03-27T16:54:43.977Z,8.60
2019-03-27T16:57:13.960Z,8.60
2019-03-27T16:59:44.856Z,8.60
2019-03-27T17:02:16.421Z,8.60
2019-03-27T17:04:46.560Z,8.60
2019-03-27T17:07:18.629Z,8.50
2019-03-27T17:09:48.558Z,8.50
2019-03-27T17:12:19.788Z,8.60
2019-03-27T17:14:49.761Z,8.50
2019-03-27T17:17:19.672Z,8.50
2019-03-27T17:19:49.597Z,8.40
2019-03-27T17:22:20.407Z,8.30
2019-03-27T17:24:51.519Z,8.30
2019-03-27T17:27:22.562Z,8.30
2019-03-27T17:29:53.179Z,8.30
2019-03-27T17:32:23.061Z,8.30
2019-03-27T17:34:53.341Z,8.30
2019-03-27T17:37:24.122Z,8.20
2019-03-27T17:39:54.045Z,8.20
2019-03-27T17:42:24.034Z,8.20
2019-03-27T17:44:54.736Z,8.20
2019-03-27T17:47:26.202Z,8.20
2019-03-27T17:49:56.182Z,8.10
2019-03-27T17:52:27.500Z,8.10
2019-03-27T17:55:01.295Z,8.10
2019-03-27T17:57:32.123Z,8.10
2019-03-27T18:00:05.180Z,8.10
2019-03-27T18:02:41.820Z,8.10
2019-03-27T18:05:13.330Z,8.10
2019-03-27T18:07:46.027Z,8.10
2019-03-27T18:10:17.882Z,8.10
2019-03-27T18:12:48.946Z,7.90
2019-03-27T18:15:20.442Z,7.90
2019-03-27T18:17:51.431Z,7.90
2019-03-27T18:20:22.581Z,7.90
2019-03-27T18:22:54.203Z,7.90
2019-03-27T18:25:24.595Z,7.90
2019-03-27T18:27:54.508Z,7.90
2019-03-27T18:30:24.448Z,7.90
2019-03-27T18:32:54.373Z,7.80
2019-03-27T18:35:24.551Z,7.80
2019-03-27T18:37:54.471Z,7.80
2019-03-27T18:40:24.379Z,7.90
2019-03-27T18:42:54.921Z,7.90
2019-03-27T18:45:32.837Z,7.90
2019-03-27T18:48:03.302Z,7.80
2019-03-27T18:50:33.416Z,7.80
2019-03-27T18:53:03.479Z,7.80
2019-03-27T18:55:34.398Z,7.80
2019-03-27T18:58:04.482Z,7.80
2019-03-27T19:00:34.988Z,7.80
2019-03-27T19:03:05.421Z,7.80
2019-03-27T19:05:37.032Z,7.70
2019-03-27T19:08:07.784Z,7.70
2019-03-27T19:10:38.936Z,7.60
2019-03-27T19:13:08.887Z,7.60
2019-03-27T19:15:41.212Z,7.60
2019-03-27T19:18:12.995Z,7.60
2019-03-27T19:20:43.206Z,7.60
2019-03-27T19:23:20.329Z,7.60
2019-03-27T19:25:50.833Z,7.60
2019-03-27T19:28:26.273Z,7.60
2019-03-27T19:30:55.637Z,7.50
2019-03-27T19:33:27.708Z,7.50
2019-03-27T19:35:57.668Z,7.50
2019-03-27T19:38:27.656Z,7.50
2019-03-27T19:40:59.843Z,7.50
2019-03-27T19:43:30.699Z,7.60
2019-03-27T19:46:02.509Z,7.50
2019-03-27T19:48:33.255Z,7.40
2019-03-27T19:51:03.168Z,7.40
2019-03-27T19:53:34.572Z,7.40
2019-03-27T19:56:04.545Z,7.30
2019-03-27T19:58:35.646Z,7.30
2019-03-27T20:01:07.736Z,7.20
2019-03-27T20:03:40.726Z,7.20
2019-03-27T20:06:11.706Z,7.20
2019-03-27T20:08:41.756Z,7.30
2019-03-27T20:11:11.733Z,7.30
2019-03-27T20:13:41.726Z,7.30
2019-03-27T20:16:14.130Z,7.30
2019-03-27T20:18:44.508Z,7.20
2019-03-27T20:21:18.429Z,7.10
2019-03-27T20:23:51.493Z,7.00
2019-03-27T20:26:23.411Z,7.00
2019-03-27T20:28:57.094Z,7.00
2019-03-27T20:31:27.045Z,7.00
2019-03-27T20:33:57.072Z,7.10
2019-03-27T20:36:27.844Z,7.10
2019-03-27T20:38:57.813Z,7.00
2019-03-27T20:41:27.763Z,7.00
2019-03-27T20:43:58.177Z,7.00
2019-03-27T20:46:29.380Z,7.00
2019-03-27T20:48:59.460Z,7.00
2019-03-27T20:51:32.411Z,7.00
2019-03-27T20:54:07.003Z,7.00
2019-03-27T20:56:37.940Z,7.00
2019-03-27T20:59:08.298Z,7.10
2019-03-27T21:01:39.569Z,7.00
2019-03-27T21:04:10.278Z,7.00
2019-03-27T21:06:41.147Z,7.00
2019-03-27T21:09:12.979Z,7.00
2019-03-27T21:11:43.851Z,7.00
2019-03-27T21:14:14.173Z,7.00
2019-03-27T21:16:44.670Z,7.00
2019-03-27T21:19:17.209Z,7.00
2019-03-27T21:21:51.213Z,7.00
2019-03-27T21:24:21.660Z,6.90
2019-03-27T21:26:51.985Z,6.90
2019-03-27T21:29:25.593Z,6.90
2019-03-27T21:31:59.397Z,6.80
2019-03-27T21:34:30.005Z,6.80
2019-03-27T21:37:05.433Z,6.80
2019-03-27T21:39:37.881Z,6.70
2019-03-27T21:42:08.792Z,6.60
2019-03-27T21:44:38.825Z,6.60
2019-03-27T21:47:12.979Z,6.50
2019-03-27T21:49:43.705Z,6.50
2019-03-27T21:52:14.782Z,6.50
2019-03-27T21:54:45.798Z,6.50
2019-03-27T21:57:17.698Z,6.50
2019-03-27T21:59:48.412Z,6.40
2019-03-27T22:02:18.791Z,6.40
2019-03-27T22:04:48.699Z,6.40
2019-03-27T22:07:19.436Z,6.40
2019-03-27T22:09:49.575Z,6.50
2019-03-27T22:12:20.113Z,6.50
2019-03-27T22:14:51.300Z,6.50
2019-03-27T22:17:22.709Z,6.50
2019-03-27T22:19:53.463Z,6.40
2019-03-27T22:22:24.292Z,6.50
2019-03-27T22:24:55.308Z,6.50
2019-03-27T22:27:25.859Z,6.30
2019-03-27T22:29:56.052Z,6.40
2019-03-27T22:32:27.243Z,6.40
2019-03-27T22:34:57.813Z,6.30
2019-03-27T22:37:30.668Z,6.30
2019-03-27T22:40:01.016Z,6.40
2019-03-27T22:42:31.085Z,6.30
2019-03-27T22:45:01.003Z,6.30
2019-03-27T22:47:31.880Z,6.30
2019-03-27T22:50:02.297Z,6.30
2019-03-27T22:52:32.516Z,6.40
2019-03-27T22:55:02.794Z,6.30
2019-03-27T22:57:32.709Z,6.30
2019-03-27T23:00:02.625Z,6.30
2019-03-27T23:02:33.273Z,6.30
2019-03-27T23:05:03.922Z,6.40
2019-03-27T23:07:34.738Z,6.30
2019-03-27T23:10:06.052Z,6.30
2019-03-27T23:12:37.275Z,6.30
2019-03-27T23:15:08.679Z,6.30
2019-03-27T23:17:38.699Z,6.30
2019-03-27T23:20:13.965Z,6.30
2019-03-27T23:22:44.289Z,6.30
2019-03-27T23:25:15.017Z,6.30
2019-03-27T23:27:45.812Z,6.30
2019-03-27T23:30:17.099Z,6.30
2019-03-27T23:32:47.996Z,6.30
2019-03-27T23:35:18.657Z,6.30
2019-03-27T23:37:48.819Z,6.30
2019-03-27T23:40:19.568Z,6.20
2019-03-27T23:42:51.553Z,6.20
2019-03-27T23:45:22.080Z,6.20
2019-03-27T23:47:53.438Z,6.10
2019-03-27T23:50:28.900Z,6.10
2019-03-27T23:53:02.620Z,6.10
2019-03-27T23:55:33.109Z,6.10
2019-03-27T23:58:03.220Z,6.00
